Latest Weather Observations for Bowen Airport AWS

IDQ60801

Issued at 7:02 am EST Tuesday 25 April 2017 (issued every 30 minutes, with the page automatically refreshed every 10 minutes)

About weather observations | Map of weather stations | Latest weather observations for QLD | Other Formats
Station Details ID: 033327 Name: BOWEN AIRPORT AWS Lat: -20.02 Lon: 148.21 Height: 5.9 m
Data from the previous 72 hours. | See also: Recent months at Bowen Airport AWS
Date/Time
EST
Temp
°C
App
Temp
°C
Dew
Point
°C
Rel
Hum
%
Delta-T
°C
Wind Press
QNH
hPa
Press
MSL
hPa
Rain since
9am
mm
Dir  Spd
km/h
Gust
km/h
Spd
kts
Gust
kts
25/07:00am 22.0 22.6 19.5 86 1.6 SE 15 19 8 10 1015.9 1015.8 0.0
25/06:30am 21.1 22.0 19.2 89 1.2 SE 13 19 7 10 1015.7 1015.6 0.0
25/06:00am 20.9 21.6 18.8 88 1.3 SE 13 15 7 8 1015.4 1015.3 0.0
25/05:30am 21.0 21.4 18.9 88 1.3 SE 15 20 8 11 1015.0 1014.9 0.0
25/05:00am 21.0 21.4 18.9 88 1.3 SE 15 19 8 10 1014.9 1014.8 0.0
25/04:30am 21.4 21.8 19.1 87 1.5 SE 15 19 8 10 1014.6 1014.5 0.0
25/04:00am 21.4 21.8 19.1 87 1.5 SSE 15 20 8 11 1014.6 1014.5 0.0
25/03:30am 21.5 22.0 19.2 87 1.5 SSE 15 20 8 11 1014.6 1014.5 0.0
25/03:00am 21.5 21.6 19.1 86 1.5 SSE 17 20 9 11 1014.7 1014.6 0.0
25/02:30am 21.8 22.2 19.0 84 1.8 SSE 15 20 8 11 1014.9 1014.8 0.0
25/02:00am 22.1 22.1 18.9 82 2.0 SE 17 26 9 14 1015.1 1015.0 0.0
25/01:30am 22.5 22.6 19.1 81 2.2 SE 17 24 9 13 1015.6 1015.5 0.0
25/01:00am 22.2 22.6 19.0 82 2.0 SE 15 17 8 9 1016.0 1015.9 0.0
25/12:30am 22.3 23.0 18.9 81 2.1 SE 13 19 7 10 1016.4 1016.3 0.0
25/12:00am 23.0 23.2 19.4 80 2.3 SE 17 22 9 12 1016.5 1016.4 0.0
 
Date/Time
EST
Temp
°C
App
Temp
°C
Dew
Point
°C
Rel
Hum
%
Delta-T
°C
Wind Press
QNH
hPa
Press
MSL
hPa
Rain since
9am
mm
Dir  Spd
km/h
Gust
km/h
Spd
kts
Gust
kts
24/11:30pm 23.1 23.4 19.5 80 2.3 SE 17 22 9 12 1016.7 1016.6 0.0
24/11:00pm 23.2 23.5 19.6 80 2.3 SE 17 24 9 13 1017.0 1016.9 0.0
24/10:30pm 23.2 24.0 19.8 81 2.2 SE 15 20 8 11 1017.0 1016.9 0.0
24/10:00pm 23.4 23.5 20.0 81 2.2 SE 19 26 10 14 1017.1 1017.0 0.0
24/09:30pm 23.8 24.0 20.5 82 2.1 SE 20 26 11 14 1017.3 1017.2 0.0
24/09:00pm 23.9 24.2 20.8 83 2.0 SE 20 26 11 14 1017.3 1017.2 0.0
24/08:30pm 23.9 24.2 20.8 83 2.0 SE 20 26 11 14 1017.1 1017.0 0.0
24/08:00pm 24.1 24.9 20.6 81 2.3 SE 17 24 9 13 1016.9 1016.8 0.0
24/07:30pm 24.5 24.6 20.4 78 2.7 SE 20 26 11 14 1016.6 1016.5 0.0
24/07:00pm 24.8 24.5 20.3 76 2.9 SE 22 30 12 16 1016.3 1016.2 0.0
24/06:30pm 24.8 24.4 20.1 75 3.0 SE 22 28 12 15 1016.1 1016.0 0.0
24/06:00pm 25.2 24.8 20.2 74 3.2 ESE 22 26 12 14 1016.0 1015.9 0.0
24/05:30pm 24.5 25.2 20.4 78 2.7 E 17 28 9 15 1015.7 1015.6 0.0
24/05:00pm 26.0 26.4 19.9 69 4.0 E 17 22 9 12 1015.4 1015.3 0.0
24/04:30pm 27.0 27.6 19.4 63 4.9 ESE 15 20 8 11 1015.2 1015.1 0.0
24/04:00pm 26.5 27.3 19.9 67 4.3 ESE 15 19 8 10 1015.0 1014.9 0.0
24/03:30pm 27.0 27.8 19.9 65 4.6 ESE 15 20 8 11 1014.9 1014.8 0.0
24/03:00pm 26.8 26.4 19.4 64 4.8 SE 20 26 11 14 1015.0 1014.9 0.0
24/02:30pm 26.5 26.4 19.6 66 4.5 SSE 19 24 10 13 1015.0 1014.9 0.0
24/02:00pm 25.7 24.7 19.6 69 3.9 SE 24 30 13 16 1015.4 1015.3 0.0
24/01:30pm 25.3 23.2 19.7 71 3.6 ESE 30 41 16 22 1015.7 1015.6 0.0
24/01:00pm 27.8 26.5 19.8 61 5.2 ESE 26 30 14 16 1015.8 1015.7 0.0
24/12:30pm 27.4 27.3 20.7 67 4.4 ESE 22 26 12 14 1016.0 1015.9 0.0
24/12:00pm 26.9 27.0 20.0 66 4.5 ESE 19 24 10 13 1016.2 1016.1 0.0
24/11:30am 26.2 26.2 20.1 69 4.0 ESE 20 24 11 13 1016.6 1016.5 0.0
24/11:00am 26.6 26.6 20.2 68 4.2 ESE 20 24 11 13 1017.0 1016.9 0.0
24/10:30am 27.1 26.7 20.2 66 4.5 SE 22 28 12 15 1017.3 1017.2 0.0
24/10:00am 26.7 26.4 20.3 68 4.2 SE 22 30 12 16 1017.5 1017.4 0.0
24/09:30am 26.1 25.4 20.2 70 3.8 SE 24 30 13 16 1017.5 1017.4 0.0
24/09:00am 25.4 25.2 19.8 71 3.6 SE 20 28 11 15 1017.3 1017.2 0.4
24/08:30am 24.7 24.2 20.0 75 3.0 SE 22 28 12 15 1017.0 1016.9 0.4
24/08:00am 23.6 23.7 20.3 82 2.1 SE 20 28 11 15 1017.0 1016.9 0.4
24/07:30am 22.6 22.8 20.1 86 1.6 SE 19 26 10 14 1016.9 1016.8 0.4
24/07:00am 22.0 22.8 19.9 88 1.3 SE 15 20 8 11 1016.5 1016.4 0.4
24/06:30am 21.7 21.8 20.0 90 1.1 SE 19 22 10 12 1016.1 1016.0 0.4
24/06:00am 21.2 21.5 19.5 90 1.1 SSE 17 20 9 11 1015.8 1015.7 0.4
24/05:30am 21.3 22.0 19.6 90 1.1 SE 15 20 8 11 1015.6 1015.5 0.4
24/05:00am 21.5 22.2 19.6 89 1.2 SE 15 22 8 12 1015.5 1015.4 0.4
24/04:30am 21.4 21.7 19.5 89 1.2 SE 17 22 9 12 1015.6 1015.5 0.4
24/04:00am 21.3 21.9 19.4 89 1.2 SE 15 19 8 10 1015.6 1015.5 0.4
24/03:30am 21.6 21.6 19.7 89 1.2 SE 19 24 10 13 1015.8 1015.7 0.4
24/03:00am 21.5 22.1 19.4 88 1.3 SE 15 19 8 10 1016.0 1015.9 0.4
24/02:30am 21.6 22.2 19.5 88 1.3 SSE 15 20 8 11 1016.1 1016.0 0.4
24/02:00am 21.8 22.1 19.7 88 1.3 SSE 17 19 9 10 1016.3 1016.2 0.4
24/01:30am 21.9 23.1 20.0 89 1.2 SE 13 17 7 9 1016.6 1016.5 0.4
24/01:00am 22.2 23.0 19.9 87 1.5 SE 15 19 8 10 1017.1 1017.0 0.4
24/12:30am 22.4 22.7 20.3 88 1.4 SE 19 28 10 15 1017.6 1017.5 0.4
24/12:00am 22.9 22.1 20.1 84 1.8 ESE 24 32 13 17 1018.0 1017.9 0.4
 
Date/Time
EST
Temp
°C
App
Temp
°C
Dew
Point
°C
Rel
Hum
%
Delta-T
°C
Wind Press
QNH
hPa
Press
MSL
hPa
Rain since
9am
mm
Dir  Spd
km/h
Gust
km/h
Spd
kts
Gust
kts
23/11:30pm 22.9 23.0 19.9 83 1.9 SE 19 26 10 14 1017.9 1017.8 0.4
23/11:00pm 22.5 22.9 19.9 85 1.7 SE 17 24 9 13 1018.0 1017.9 0.4
23/10:30pm 22.4 23.2 19.8 85 1.7 SE 15 20 8 11 1018.1 1018.0 0.4
23/10:00pm 22.4 22.8 19.9 86 1.6 SSE 17 24 9 13 1018.2 1018.1 0.4
23/09:30pm 22.4 22.5 19.9 86 1.6 SSE 19 26 10 14 1018.3 1018.2 0.4
23/09:00pm 22.3 22.7 19.8 86 1.6 SSE 17 20 9 11 1018.2 1018.1 0.4
23/08:30pm 22.4 22.7 19.6 84 1.8 SSE 17 20 9 11 1018.0 1017.9 0.4
23/08:00pm 22.3 23.1 19.1 82 2.0 SE 13 20 7 11 1017.9 1017.8 0.4
23/07:30pm 22.8 23.3 19.2 80 2.3 SSE 15 19 8 10 1017.4 1017.3 0.4
23/07:00pm 22.9 22.9 19.7 82 2.0 SSE 19 24 10 13 1017.2 1017.1 0.4
23/06:30pm 23.0 23.1 20.0 83 1.9 SSE 19 26 10 14 1016.9 1016.8 0.4
23/06:00pm 23.1 22.1 19.7 81 2.2 SSE 24 33 13 18 1016.7 1016.6 0.4
23/05:30pm 23.6 21.6 19.9 80 2.4 SE 30 39 16 21 1016.4 1016.3 0.4
23/05:00pm 24.9 23.5 19.7 73 3.4 SE 26 33 14 18 1016.0 1015.9 0.4
23/04:30pm 26.3 26.3 20.2 69 4.0 SE 20 24 11 13 1015.4 1015.3 0.4
23/04:00pm 26.7 26.9 20.1 67 4.3 SE 19 22 10 12 1015.5 1015.4 0.4
23/03:30pm 25.9 25.8 19.5 68 4.1 SE 19 26 10 14 1015.4 1015.3 0.4
23/03:00pm 27.3 28.5 19.9 64 4.8 ESE 13 20 7 11 1015.4 1015.3 0.4
23/02:30pm 26.3 26.9 19.4 66 4.5 SE 15 19 8 10 1015.7 1015.6 0.4
23/02:00pm 25.7 27.0 19.3 67 4.1 SSE 11 19 6 10 1016.1 1016.0 0.2
23/01:30pm 23.8 24.2 19.9 79 2.5 SSE 17 22 9 12 1016.4 1016.3 0.2
23/01:00pm 22.3 22.4 20.4 89 1.2 ESE 20 37 11 20 1017.2 1017.1 0.2
23/12:30pm 26.3 25.3 19.7 67 4.3 SE 24 32 13 17 1017.0 1016.9 0.0
23/12:00pm 25.4 24.1 19.1 68 4.0 SE 24 30 13 16 1017.1 1017.0 0.0
23/11:30am 26.7 25.4 19.8 66 4.5 SE 26 33 14 18 1017.3 1017.2 0.0
23/11:00am 26.2 24.9 19.1 65 4.6 SE 24 33 13 18 1017.6 1017.5 0.0
23/10:30am 26.1 24.9 19.2 65 4.4 SE 24 33 13 18 1017.8 1017.7 0.0
23/10:00am 25.4 23.6 18.8 67 4.2 ESE 26 35 14 19 1017.9 1017.8 0.0
23/09:30am 25.9 24.8 19.5 68 4.1 SE 24 33 13 18 1017.8 1017.7 0.0
23/09:00am 25.4 25.1 19.5 70 3.8 SSE 20 26 11 14 1017.4 1017.3 0.0
23/08:30am 24.4 21.9 18.8 71 3.6 SSE 30 37 16 20 1017.5 1017.4 0.0
23/08:00am 23.6 21.9 18.9 75 3.0 SE 26 35 14 19 1017.3 1017.2 0.0
23/07:30am 22.8 22.2 18.8 78 2.5 SE 20 28 11 15 1017.1 1017.0 0.0
23/07:00am 21.9 21.8 18.7 82 2.0 SSE 17 22 9 12 1016.9 1016.8 0.0
23/06:30am 21.4 21.4 19.0 86 1.5 SE 17 22 9 12 1016.7 1016.6 0.0
23/06:00am 21.3 22.5 19.0 87 1.4 SSE 11 15 6 8 1016.4 1016.3 0.0
23/05:30am 21.4 21.8 19.1 87 1.5 SSE 15 20 8 11 1016.0 1015.9 0.0
23/05:00am 21.4 21.3 19.5 89 1.2 SSE 19 24 10 13 1016.0 1015.9 0.0
23/04:30am 21.5 22.2 19.6 89 1.2 SSE 15 22 8 12 1015.6 1015.5 0.0
23/04:00am 21.9 22.5 19.5 86 1.5 SSE 15 24 8 13 1015.7 1015.6 0.0
23/03:30am 21.9 21.8 19.6 87 1.5 SSE 19 26 10 14 1015.8 1015.7 0.0
23/03:00am 21.8 22.3 19.2 85 1.6 SSE 15 19 8 10 1016.1 1016.0 0.0
23/02:30am 21.9 21.5 19.3 85 1.7 SE 20 30 11 16 1016.2 1016.1 0.0
23/02:00am 22.1 21.6 19.1 83 1.9 SE 20 28 11 15 1016.5 1016.4 0.0
23/01:30am 22.4 22.0 19.4 83 1.9 SE 20 26 11 14 1016.5 1016.4 0.0
23/01:00am 22.1 22.0 19.6 86 1.6 SE 19 24 10 13 1016.6 1016.5 0.0
23/12:30am 22.1 22.4 19.6 86 1.6 SE 17 22 9 12 1016.9 1016.8 0.0
23/12:00am 22.3 22.3 19.7 85 1.7 SSE 19 26 10 14 1017.0 1016.9 0.0
 
Date/Time
EST
Temp
°C
App
Temp
°C
Dew
Point
°C
Rel
Hum
%
Delta-T
°C
Wind Press
QNH
hPa
Press
MSL
hPa
Rain since
9am
mm
Dir  Spd
km/h
Gust
km/h
Spd
kts
Gust
kts
22/11:30pm 22.3 22.6 19.5 84 1.8 SSE 17 20 9 11 1017.3 1017.2 0.0
22/11:00pm 22.3 22.6 19.5 84 1.8 SE 17 20 9 11 1017.6 1017.5 0.0
22/10:30pm 22.4 22.5 19.2 82 2.0 SSE 17 22 9 12 1017.8 1017.7 0.0
22/10:00pm 22.3 22.6 19.5 84 1.8 SSE 17 24 9 13 1017.8 1017.7 0.0
22/09:30pm 22.5 22.6 19.1 81 2.2 SSE 17 20 9 11 1018.0 1017.9 0.0
22/09:00pm 23.0 22.5 19.2 79 2.4 SE 20 28 11 15 1018.3 1018.2 0.0
22/08:30pm 23.2 22.7 19.2 78 2.5 SE 20 26 11 14 1018.2 1018.1 0.0
22/08:00pm 23.4 22.0 18.7 75 3.0 SE 24 32 13 17 1017.8 1017.7 0.0
22/07:30pm 23.8 23.1 19.5 77 2.8 SE 22 30 12 16 1017.5 1017.4 0.0
22/07:00pm 24.1 23.4 19.6 76 2.9 SE 22 30 12 16 1017.2 1017.1 0.0
22/06:30pm 24.2 24.1 19.5 75 3.0 SE 19 24 10 13 1016.8 1016.7 0.0
22/06:00pm 24.6 23.5 19.4 73 3.3 SE 24 30 13 16 1016.4 1016.3 0.0
22/05:30pm 25.3 24.4 19.9 72 3.5 SE 24 30 13 16 1016.1 1016.0 0.0
22/05:00pm 25.8 24.3 19.4 67 4.1 SE 26 32 14 17 1015.9 1015.8 0.0
22/04:30pm 26.6 25.0 19.2 64 4.8 SE 26 35 14 19 1015.7 1015.6 0.0
22/04:00pm 27.5 25.7 19.6 62 5.1 SE 28 39 15 21 1015.4 1015.3 0.0
22/03:30pm 26.8 24.8 19.2 63 4.9 ESE 28 33 15 18 1015.3 1015.2 0.0
22/03:00pm 26.2 24.6 19.3 65 4.4 SE 26 33 14 18 1015.3 1015.2 0.0
22/02:30pm 26.9 26.0 19.0 62 5.1 SE 22 26 12 14 1015.5 1015.4 0.0
22/02:00pm 26.5 24.6 18.6 62 5.0 SE 26 33 14 18 1015.6 1015.5 0.0
22/01:30pm 27.4 26.5 18.1 57 5.9 E 20 32 11 17 1015.7 1015.6 0.0
22/01:00pm 28.4 27.4 18.8 56 6.2 ESE 22 26 12 14 1016.0 1015.9 0.0
22/12:30pm 28.3 27.0 19.0 57 6.0 SE 24 32 13 17 1016.4 1016.3 0.0
22/12:00pm 27.9 26.0 19.4 60 5.5 SE 28 37 15 20 1016.8 1016.7 0.0
22/11:30am 27.8 25.6 19.6 61 5.3 SE 30 35 16 19 1017.1 1017.0 0.0
22/11:00am 26.6 24.4 19.5 65 4.6 SE 30 37 16 20 1017.7 1017.6 0.0
22/10:30am 26.5 24.5 19.9 67 4.3 SE 30 37 16 20 1017.9 1017.8 0.0
22/10:00am 26.5 24.5 19.9 67 4.3 SE 30 37 16 20 1018.2 1018.1 0.0
22/09:30am 25.7 23.6 19.8 70 3.8 SE 30 35 16 19 1017.9 1017.8 0.0
22/09:00am 24.8 22.6 19.6 73 3.3 SE 30 39 16 21 1017.8 1017.7 0.0
22/08:30am 24.2 22.5 19.9 77 2.8 SE 28 37 15 20 1017.5 1017.4 0.0
22/08:00am 23.2 21.1 19.8 81 2.2 SE 30 39 16 21 1017.1 1017.0 0.0
22/07:30am 22.2 20.8 19.7 86 1.6 SE 26 32 14 17 1016.9 1016.8 0.0

Other Formats:

Comma delimited format used in spreadsheet applications
http://www.bom.gov.au/fwo/IDQ60801/IDQ60801.94383.axf

JavaScript Object Notation format (JSON) in row-major order
http://www.bom.gov.au/fwo/IDQ60801/IDQ60801.94383.json